sensor_id;sensor_type;location;lat;lon;timestamp;P1;durP1;ratioP1;P2;durP2;ratioP2
64682;SDS011;51107;47.652;19.016;2023-05-14T00:02:10;1.40;;;1.20;;
64682;SDS011;51107;47.652;19.016;2023-05-14T00:04:38;1.67;;;1.17;;
64682;SDS011;51107;47.652;19.016;2023-05-14T00:07:08;1.37;;;1.27;;
64682;SDS011;51107;47.652;19.016;2023-05-14T00:09:36;1.62;;;1.23;;
64682;SDS011;51107;47.652;19.016;2023-05-14T00:12:04;1.85;;;1.58;;
64682;SDS011;51107;47.652;19.016;2023-05-14T00:14:33;1.70;;;1.20;;
64682;SDS011;51107;47.652;19.016;2023-05-14T00:17:01;1.58;;;1.00;;
64682;SDS011;51107;47.652;19.016;2023-05-14T00:19:29;1.67;;;1.33;;
64682;SDS011;51107;47.652;19.016;2023-05-14T00:21:57;1.90;;;1.33;;
64682;SDS011;51107;47.652;19.016;2023-05-14T00:24:26;1.42;;;0.93;;
64682;SDS011;51107;47.652;19.016;2023-05-14T00:26:54;1.23;;;1.00;;
64682;SDS011;51107;47.652;19.016;2023-05-14T00:29:22;2.78;;;1.50;;
64682;SDS011;51107;47.652;19.016;2023-05-14T00:31:51;1.50;;;1.17;;
64682;SDS011;51107;47.652;19.016;2023-05-14T00:34:19;3.65;;;1.52;;
64682;SDS011;51107;47.652;19.016;2023-05-14T00:36:49;1.95;;;1.40;;
64682;SDS011;51107;47.652;19.016;2023-05-14T00:39:17;1.90;;;1.37;;
64682;SDS011;51107;47.652;19.016;2023-05-14T00:41:46;1.87;;;1.30;;
64682;SDS011;51107;47.652;19.016;2023-05-14T00:44:14;1.55;;;1.45;;
64682;SDS011;51107;47.652;19.016;2023-05-14T00:46:42;1.10;;;0.98;;
64682;SDS011;51107;47.652;19.016;2023-05-14T00:49:11;1.20;;;1.00;;
64682;SDS011;51107;47.652;19.016;2023-05-14T00:51:39;1.23;;;0.98;;
64682;SDS011;51107;47.652;19.016;2023-05-14T00:54:08;2.72;;;1.33;;
64682;SDS011;51107;47.652;19.016;2023-05-14T00:56:38;1.37;;;1.15;;
64682;SDS011;51107;47.652;19.016;2023-05-14T00:59:06;1.27;;;1.00;;
64682;SDS011;51107;47.652;19.016;2023-05-14T01:01:34;2.95;;;1.27;;
64682;SDS011;51107;47.652;19.016;2023-05-14T01:04:03;1.35;;;1.25;;
64682;SDS011;51107;47.652;19.016;2023-05-14T01:06:41;1.55;;;1.30;;
64682;SDS011;51107;47.652;19.016;2023-05-14T01:12:07;1.23;;;1.02;;
64682;SDS011;51107;47.652;19.016;2023-05-14T01:17:24;1.25;;;0.98;;
64682;SDS011;51107;47.652;19.016;2023-05-14T01:19:55;1.30;;;1.15;;
64682;SDS011;51107;47.652;19.016;2023-05-14T01:22:23;3.33;;;1.45;;
64682;SDS011;51107;47.652;19.016;2023-05-14T01:24:51;1.17;;;1.08;;
64682;SDS011;51107;47.652;19.016;2023-05-14T01:30:12;1.42;;;1.10;;
64682;SDS011;51107;47.652;19.016;2023-05-14T01:33:02;1.33;;;0.98;;
64682;SDS011;51107;47.652;19.016;2023-05-14T01:35:35;2.62;;;1.08;;
64682;SDS011;51107;47.652;19.016;2023-05-14T01:38:05;1.60;;;1.30;;
64682;SDS011;51107;47.652;19.016;2023-05-14T01:40:35;1.08;;;0.77;;
64682;SDS011;51107;47.652;19.016;2023-05-14T01:43:04;1.35;;;1.25;;
64682;SDS011;51107;47.652;19.016;2023-05-14T01:45:36;1.15;;;1.05;;
64682;SDS011;51107;47.652;19.016;2023-05-14T01:48:04;3.00;;;1.70;;
64682;SDS011;51107;47.652;19.016;2023-05-14T01:50:33;1.70;;;1.17;;
64682;SDS011;51107;47.652;19.016;2023-05-14T01:53:02;1.50;;;1.10;;
64682;SDS011;51107;47.652;19.016;2023-05-14T01:55:31;1.55;;;1.02;;
64682;SDS011;51107;47.652;19.016;2023-05-14T01:57:59;1.27;;;0.80;;
64682;SDS011;51107;47.652;19.016;2023-05-14T02:00:30;2.08;;;1.05;;
64682;SDS011;51107;47.652;19.016;2023-05-14T02:02:58;2.35;;;1.45;;
64682;SDS011;51107;47.652;19.016;2023-05-14T02:05:27;1.35;;;1.05;;
64682;SDS011;51107;47.652;19.016;2023-05-14T02:07:55;1.45;;;1.20;;
64682;SDS011;51107;47.652;19.016;2023-05-14T02:10:24;1.77;;;1.37;;
64682;SDS011;51107;47.652;19.016;2023-05-14T02:12:52;1.17;;;0.85;;
64682;SDS011;51107;47.652;19.016;2023-05-14T02:15:21;1.00;;;0.90;;
64682;SDS011;51107;47.652;19.016;2023-05-14T02:17:49;1.00;;;0.88;;
64682;SDS011;51107;47.652;19.016;2023-05-14T02:20:17;2.55;;;1.50;;
64682;SDS011;51107;47.652;19.016;2023-05-14T02:22:46;2.10;;;1.60;;
64682;SDS011;51107;47.652;19.016;2023-05-14T02:25:14;2.58;;;1.58;;
64682;SDS011;51107;47.652;19.016;2023-05-14T02:27:43;1.20;;;1.00;;
64682;SDS011;51107;47.652;19.016;2023-05-14T02:30:11;1.65;;;1.30;;
64682;SDS011;51107;47.652;19.016;2023-05-14T02:32:40;2.08;;;1.25;;
64682;SDS011;51107;47.652;19.016;2023-05-14T02:35:08;1.85;;;0.82;;
64682;SDS011;51107;47.652;19.016;2023-05-14T02:37:37;4.28;;;1.35;;
64682;SDS011;51107;47.652;19.016;2023-05-14T02:40:05;3.83;;;1.02;;
64682;SDS011;51107;47.652;19.016;2023-05-14T02:42:34;1.35;;;1.05;;
64682;SDS011;51107;47.652;19.016;2023-05-14T02:45:02;1.15;;;0.93;;
64682;SDS011;51107;47.652;19.016;2023-05-14T02:47:32;2.62;;;0.98;;
64682;SDS011;51107;47.652;19.016;2023-05-14T02:50:04;1.05;;;0.95;;
64682;SDS011;51107;47.652;19.016;2023-05-14T02:52:33;1.12;;;0.95;;
64682;SDS011;51107;47.652;19.016;2023-05-14T02:55:01;1.15;;;1.05;;
64682;SDS011;51107;47.652;19.016;2023-05-14T02:57:30;1.45;;;0.80;;
64682;SDS011;51107;47.652;19.016;2023-05-14T02:59:58;1.10;;;1.00;;
64682;SDS011;51107;47.652;19.016;2023-05-14T03:02:27;3.78;;;1.60;;
64682;SDS011;51107;47.652;19.016;2023-05-14T03:04:56;1.67;;;1.20;;
64682;SDS011;51107;47.652;19.016;2023-05-14T03:07:24;1.20;;;1.10;;
64682;SDS011;51107;47.652;19.016;2023-05-14T03:09:52;1.48;;;1.08;;
64682;SDS011;51107;47.652;19.016;2023-05-14T03:12:20;1.83;;;1.17;;
64682;SDS011;51107;47.652;19.016;2023-05-14T03:14:49;2.20;;;1.20;;
64682;SDS011;51107;47.652;19.016;2023-05-14T03:17:17;2.05;;;0.98;;
64682;SDS011;51107;47.652;19.016;2023-05-14T03:19:46;1.20;;;1.05;;
64682;SDS011;51107;47.652;19.016;2023-05-14T03:22:14;1.02;;;0.70;;
64682;SDS011;51107;47.652;19.016;2023-05-14T03:24:42;1.33;;;1.00;;
64682;SDS011;51107;47.652;19.016;2023-05-14T03:27:10;1.58;;;1.20;;
64682;SDS011;51107;47.652;19.016;2023-05-14T03:29:38;1.48;;;1.00;;
64682;SDS011;51107;47.652;19.016;2023-05-14T03:32:06;3.85;;;0.98;;
64682;SDS011;51107;47.652;19.016;2023-05-14T03:34:35;1.05;;;0.80;;
64682;SDS011;51107;47.652;19.016;2023-05-14T03:37:03;0.90;;;0.80;;
64682;SDS011;51107;47.652;19.016;2023-05-14T03:39:32;1.45;;;1.20;;
64682;SDS011;51107;47.652;19.016;2023-05-14T03:42:00;1.20;;;1.10;;
64682;SDS011;51107;47.652;19.016;2023-05-14T03:44:28;2.53;;;0.98;;
64682;SDS011;51107;47.652;19.016;2023-05-14T03:46:57;1.10;;;0.90;;
64682;SDS011;51107;47.652;19.016;2023-05-14T03:49:26;2.10;;;1.10;;
64682;SDS011;51107;47.652;19.016;2023-05-14T03:51:54;0.80;;;0.80;;
64682;SDS011;51107;47.652;19.016;2023-05-14T03:54:22;1.52;;;1.05;;
64682;SDS011;51107;47.652;19.016;2023-05-14T03:56:51;1.52;;;1.05;;
64682;SDS011;51107;47.652;19.016;2023-05-14T03:59:19;1.37;;;1.00;;
64682;SDS011;51107;47.652;19.016;2023-05-14T04:01:47;2.40;;;1.10;;
64682;SDS011;51107;47.652;19.016;2023-05-14T04:04:15;1.27;;;0.90;;
64682;SDS011;51107;47.652;19.016;2023-05-14T04:06:43;3.62;;;1.10;;
64682;SDS011;51107;47.652;19.016;2023-05-14T04:09:11;1.90;;;1.12;;
64682;SDS011;51107;47.652;19.016;2023-05-14T04:11:40;1.08;;;0.98;;
64682;SDS011;51107;47.652;19.016;2023-05-14T04:14:08;1.02;;;0.90;;
64682;SDS011;51107;47.652;19.016;2023-05-14T04:16:37;1.75;;;0.85;;
64682;SDS011;51107;47.652;19.016;2023-05-14T04:19:05;1.10;;;0.80;;
64682;SDS011;51107;47.652;19.016;2023-05-14T04:21:34;0.70;;;0.65;;
64682;SDS011;51107;47.652;19.016;2023-05-14T04:24:02;1.33;;;1.00;;
64682;SDS011;51107;47.652;19.016;2023-05-14T04:26:30;2.17;;;0.90;;
64682;SDS011;51107;47.652;19.016;2023-05-14T04:28:58;1.02;;;0.60;;
64682;SDS011;51107;47.652;19.016;2023-05-14T04:31:29;1.73;;;1.23;;
64682;SDS011;51107;47.652;19.016;2023-05-14T04:33:58;1.15;;;1.05;;
64682;SDS011;51107;47.652;19.016;2023-05-14T04:36:27;2.10;;;0.98;;
64682;SDS011;51107;47.652;19.016;2023-05-14T04:38:55;0.73;;;0.73;;
64682;SDS011;51107;47.652;19.016;2023-05-14T04:41:23;1.62;;;1.30;;
64682;SDS011;51107;47.652;19.016;2023-05-14T04:43:54;1.05;;;0.82;;
64682;SDS011;51107;47.652;19.016;2023-05-14T04:46:22;0.95;;;0.82;;
64682;SDS011;51107;47.652;19.016;2023-05-14T04:48:51;1.90;;;1.10;;
64682;SDS011;51107;47.652;19.016;2023-05-14T04:51:19;1.12;;;0.85;;
64682;SDS011;51107;47.652;19.016;2023-05-14T04:53:47;2.60;;;1.30;;
64682;SDS011;51107;47.652;19.016;2023-05-14T04:56:16;0.70;;;0.70;;
64682;SDS011;51107;47.652;19.016;2023-05-14T04:58:44;1.62;;;1.10;;
64682;SDS011;51107;47.652;19.016;2023-05-14T05:01:12;3.35;;;0.98;;
64682;SDS011;51107;47.652;19.016;2023-05-14T05:03:41;1.25;;;1.05;;
64682;SDS011;51107;47.652;19.016;2023-05-14T05:06:10;2.80;;;1.65;;
64682;SDS011;51107;47.652;19.016;2023-05-14T05:08:38;2.25;;;1.12;;
64682;SDS011;51107;47.652;19.016;2023-05-14T05:11:07;1.58;;;1.08;;
64682;SDS011;51107;47.652;19.016;2023-05-14T05:13:35;1.52;;;1.27;;
64682;SDS011;51107;47.652;19.016;2023-05-14T05:16:04;1.10;;;0.95;;
64682;SDS011;51107;47.652;19.016;2023-05-14T05:18:33;1.50;;;1.20;;
64682;SDS011;51107;47.652;19.016;2023-05-14T05:21:01;2.22;;;0.82;;
64682;SDS011;51107;47.652;19.016;2023-05-14T05:23:29;1.90;;;0.85;;
64682;SDS011;51107;47.652;19.016;2023-05-14T05:25:57;0.82;;;0.70;;
64682;SDS011;51107;47.652;19.016;2023-05-14T05:28:25;1.67;;;0.90;;
64682;SDS011;51107;47.652;19.016;2023-05-14T05:30:54;0.60;;;0.60;;
64682;SDS011;51107;47.652;19.016;2023-05-14T05:33:22;1.83;;;0.95;;
64682;SDS011;51107;47.652;19.016;2023-05-14T05:35:50;3.60;;;1.67;;
64682;SDS011;51107;47.652;19.016;2023-05-14T05:38:19;1.45;;;1.17;;
64682;SDS011;51107;47.652;19.016;2023-05-14T05:40:47;1.65;;;1.10;;
64682;SDS011;51107;47.652;19.016;2023-05-14T05:43:15;2.47;;;1.45;;
64682;SDS011;51107;47.652;19.016;2023-05-14T05:45:44;2.40;;;1.55;;
64682;SDS011;51107;47.652;19.016;2023-05-14T05:48:12;2.08;;;1.10;;
64682;SDS011;51107;47.652;19.016;2023-05-14T05:50:41;1.55;;;1.23;;
64682;SDS011;51107;47.652;19.016;2023-05-14T05:53:11;1.15;;;1.05;;
64682;SDS011;51107;47.652;19.016;2023-05-14T05:55:39;1.10;;;0.98;;
64682;SDS011;51107;47.652;19.016;2023-05-14T05:58:07;1.08;;;0.90;;
64682;SDS011;51107;47.652;19.016;2023-05-14T06:00:36;2.40;;;1.42;;
64682;SDS011;51107;47.652;19.016;2023-05-14T06:03:04;5.40;;;1.10;;
64682;SDS011;51107;47.652;19.016;2023-05-14T06:05:33;1.62;;;1.08;;
64682;SDS011;51107;47.652;19.016;2023-05-14T06:08:01;1.48;;;0.88;;
64682;SDS011;51107;47.652;19.016;2023-05-14T06:10:30;2.42;;;0.93;;
64682;SDS011;51107;47.652;19.016;2023-05-14T06:12:58;2.92;;;1.50;;
64682;SDS011;51107;47.652;19.016;2023-05-14T06:15:26;1.87;;;1.08;;
64682;SDS011;51107;47.652;19.016;2023-05-14T06:17:55;1.50;;;1.00;;
64682;SDS011;51107;47.652;19.016;2023-05-14T06:20:23;1.42;;;1.17;;
64682;SDS011;51107;47.652;19.016;2023-05-14T06:22:51;1.20;;;1.10;;
64682;SDS011;51107;47.652;19.016;2023-05-14T06:25:20;1.00;;;0.90;;
64682;SDS011;51107;47.652;19.016;2023-05-14T06:27:48;3.50;;;1.40;;
64682;SDS011;51107;47.652;19.016;2023-05-14T06:30:16;2.28;;;1.23;;
64682;SDS011;51107;47.652;19.016;2023-05-14T06:32:44;2.50;;;0.98;;
64682;SDS011;51107;47.652;19.016;2023-05-14T06:35:13;2.05;;;1.15;;
64682;SDS011;51107;47.652;19.016;2023-05-14T06:37:41;2.15;;;1.20;;
64682;SDS011;51107;47.652;19.016;2023-05-14T06:40:10;2.15;;;1.37;;
64682;SDS011;51107;47.652;19.016;2023-05-14T06:42:39;1.30;;;0.88;;
64682;SDS011;51107;47.652;19.016;2023-05-14T06:45:07;1.20;;;1.00;;
64682;SDS011;51107;47.652;19.016;2023-05-14T06:47:36;0.73;;;0.70;;
64682;SDS011;51107;47.652;19.016;2023-05-14T06:50:05;2.10;;;1.08;;
64682;SDS011;51107;47.652;19.016;2023-05-14T06:52:35;1.55;;;1.15;;
64682;SDS011;51107;47.652;19.016;2023-05-14T06:55:04;1.35;;;0.80;;
64682;SDS011;51107;47.652;19.016;2023-05-14T06:57:33;4.50;;;1.33;;
64682;SDS011;51107;47.652;19.016;2023-05-14T07:00:01;1.87;;;1.08;;
64682;SDS011;51107;47.652;19.016;2023-05-14T07:02:30;5.22;;;1.83;;
64682;SDS011;51107;47.652;19.016;2023-05-14T07:04:59;1.65;;;1.15;;
64682;SDS011;51107;47.652;19.016;2023-05-14T07:07:27;1.67;;;1.20;;
64682;SDS011;51107;47.652;19.016;2023-05-14T07:09:55;1.40;;;1.23;;
64682;SDS011;51107;47.652;19.016;2023-05-14T07:12:24;2.35;;;1.65;;
64682;SDS011;51107;47.652;19.016;2023-05-14T07:14:52;1.67;;;1.12;;
64682;SDS011;51107;47.652;19.016;2023-05-14T07:17:20;2.03;;;1.15;;
64682;SDS011;51107;47.652;19.016;2023-05-14T07:19:49;6.10;;;1.70;;
64682;SDS011;51107;47.652;19.016;2023-05-14T07:22:18;1.70;;;1.20;;
64682;SDS011;51107;47.652;19.016;2023-05-14T07:24:46;2.75;;;1.75;;
64682;SDS011;51107;47.652;19.016;2023-05-14T07:27:14;1.98;;;1.23;;
64682;SDS011;51107;47.652;19.016;2023-05-14T07:29:44;3.42;;;1.55;;
64682;SDS011;51107;47.652;19.016;2023-05-14T07:32:12;1.83;;;1.25;;
64682;SDS011;51107;47.652;19.016;2023-05-14T07:34:42;1.67;;;1.58;;
64682;SDS011;51107;47.652;19.016;2023-05-14T07:37:11;1.52;;;1.05;;
64682;SDS011;51107;47.652;19.016;2023-05-14T07:39:39;2.75;;;1.37;;
64682;SDS011;51107;47.652;19.016;2023-05-14T07:42:08;2.17;;;1.17;;
64682;SDS011;51107;47.652;19.016;2023-05-14T07:44:36;1.98;;;1.23;;
64682;SDS011;51107;47.652;19.016;2023-05-14T07:47:04;1.80;;;1.35;;
64682;SDS011;51107;47.652;19.016;2023-05-14T07:49:35;1.98;;;1.25;;
64682;SDS011;51107;47.652;19.016;2023-05-14T07:52:03;1.90;;;1.23;;
64682;SDS011;51107;47.652;19.016;2023-05-14T07:54:32;2.58;;;1.30;;
64682;SDS011;51107;47.652;19.016;2023-05-14T07:57:00;1.25;;;1.12;;
64682;SDS011;51107;47.652;19.016;2023-05-14T07:59:29;1.87;;;1.40;;
64682;SDS011;51107;47.652;19.016;2023-05-14T08:01:57;2.47;;;1.30;;
64682;SDS011;51107;47.652;19.016;2023-05-14T08:04:26;1.98;;;1.62;;
64682;SDS011;51107;47.652;19.016;2023-05-14T08:06:54;1.20;;;1.10;;
64682;SDS011;51107;47.652;19.016;2023-05-14T08:09:24;1.65;;;1.17;;
64682;SDS011;51107;47.652;19.016;2023-05-14T08:11:53;1.98;;;1.12;;
64682;SDS011;51107;47.652;19.016;2023-05-14T08:14:21;2.33;;;1.60;;
64682;SDS011;51107;47.652;19.016;2023-05-14T08:16:49;1.20;;;1.10;;
64682;SDS011;51107;47.652;19.016;2023-05-14T08:19:17;2.75;;;1.35;;
64682;SDS011;51107;47.652;19.016;2023-05-14T08:21:46;1.90;;;1.48;;
64682;SDS011;51107;47.652;19.016;2023-05-14T08:24:14;1.05;;;0.98;;
64682;SDS011;51107;47.652;19.016;2023-05-14T08:26:42;1.58;;;1.48;;
64682;SDS011;51107;47.652;19.016;2023-05-14T08:29:11;2.08;;;1.55;;
64682;SDS011;51107;47.652;19.016;2023-05-14T08:31:43;5.12;;;1.67;;
64682;SDS011;51107;47.652;19.016;2023-05-14T08:34:11;4.07;;;1.45;;
64682;SDS011;51107;47.652;19.016;2023-05-14T08:36:39;2.28;;;1.70;;
64682;SDS011;51107;47.652;19.016;2023-05-14T08:39:07;1.77;;;1.58;;
64682;SDS011;51107;47.652;19.016;2023-05-14T08:41:36;1.23;;;1.12;;
64682;SDS011;51107;47.652;19.016;2023-05-14T08:44:11;2.72;;;1.95;;
64682;SDS011;51107;47.652;19.016;2023-05-14T08:46:40;2.00;;;1.27;;
64682;SDS011;51107;47.652;19.016;2023-05-14T08:52:10;3.20;;;1.62;;
64682;SDS011;51107;47.652;19.016;2023-05-14T08:54:39;4.05;;;1.27;;
64682;SDS011;51107;47.652;19.016;2023-05-14T08:57:08;4.20;;;2.20;;
64682;SDS011;51107;47.652;19.016;2023-05-14T08:59:38;2.12;;;1.80;;
64682;SDS011;51107;47.652;19.016;2023-05-14T09:02:06;3.58;;;2.10;;
64682;SDS011;51107;47.652;19.016;2023-05-14T09:04:40;2.57;;;1.70;;
64682;SDS011;51107;47.652;19.016;2023-05-14T09:07:09;5.37;;;1.80;;
64682;SDS011;51107;47.652;19.016;2023-05-14T09:09:38;1.80;;;1.67;;
64682;SDS011;51107;47.652;19.016;2023-05-14T09:12:07;1.60;;;1.30;;
64682;SDS011;51107;47.652;19.016;2023-05-14T09:14:36;2.15;;;1.58;;
64682;SDS011;51107;47.652;19.016;2023-05-14T09:17:04;2.25;;;1.30;;
64682;SDS011;51107;47.652;19.016;2023-05-14T09:19:32;2.75;;;1.35;;
64682;SDS011;51107;47.652;19.016;2023-05-14T09:22:01;2.03;;;1.60;;
64682;SDS011;51107;47.652;19.016;2023-05-14T09:24:35;4.47;;;1.70;;
64682;SDS011;51107;47.652;19.016;2023-05-14T09:27:05;4.95;;;1.50;;
64682;SDS011;51107;47.652;19.016;2023-05-14T09:29:33;1.67;;;1.35;;
64682;SDS011;51107;47.652;19.016;2023-05-14T09:32:02;2.35;;;1.67;;
64682;SDS011;51107;47.652;19.016;2023-05-14T09:34:33;1.95;;;1.55;;
64682;SDS011;51107;47.652;19.016;2023-05-14T09:37:05;2.60;;;1.50;;
64682;SDS011;51107;47.652;19.016;2023-05-14T09:39:35;2.12;;;1.70;;
64682;SDS011;51107;47.652;19.016;2023-05-14T09:42:04;1.58;;;1.48;;
64682;SDS011;51107;47.652;19.016;2023-05-14T09:44:32;5.05;;;1.40;;
64682;SDS011;51107;47.652;19.016;2023-05-14T09:47:02;1.50;;;1.40;;
64682;SDS011;51107;47.652;19.016;2023-05-14T09:49:31;1.52;;;1.00;;
64682;SDS011;51107;47.652;19.016;2023-05-14T09:52:03;1.40;;;1.30;;
64682;SDS011;51107;47.652;19.016;2023-05-14T09:54:33;3.55;;;1.17;;
64682;SDS011;51107;47.652;19.016;2023-05-14T09:57:02;2.03;;;1.30;;
64682;SDS011;51107;47.652;19.016;2023-05-14T09:59:31;2.78;;;1.60;;
64682;SDS011;51107;47.652;19.016;2023-05-14T10:02:00;2.22;;;1.37;;
64682;SDS011;51107;47.652;19.016;2023-05-14T10:04:29;1.80;;;1.60;;
64682;SDS011;51107;47.652;19.016;2023-05-14T10:06:58;2.95;;;1.75;;
64682;SDS011;51107;47.652;19.016;2023-05-14T10:09:27;2.80;;;1.83;;
64682;SDS011;51107;47.652;19.016;2023-05-14T10:11:57;2.67;;;1.92;;
64682;SDS011;51107;47.652;19.016;2023-05-14T10:14:49;2.03;;;1.60;;
64682;SDS011;51107;47.652;19.016;2023-05-14T10:17:20;5.12;;;1.67;;
64682;SDS011;51107;47.652;19.016;2023-05-14T10:19:51;2.80;;;1.75;;
64682;SDS011;51107;47.652;19.016;2023-05-14T10:22:21;3.15;;;1.77;;
64682;SDS011;51107;47.652;19.016;2023-05-14T10:24:51;1.73;;;1.52;;
64682;SDS011;51107;47.652;19.016;2023-05-14T10:27:21;2.45;;;1.73;;
64682;SDS011;51107;47.652;19.016;2023-05-14T10:29:50;2.17;;;1.73;;
64682;SDS011;51107;47.652;19.016;2023-05-14T10:32:22;2.12;;;1.30;;
64682;SDS011;51107;47.652;19.016;2023-05-14T10:34:52;5.10;;;1.92;;
64682;SDS011;51107;47.652;19.016;2023-05-14T10:37:24;3.33;;;2.33;;
64682;SDS011;51107;47.652;19.016;2023-05-14T10:39:56;2.37;;;1.62;;
64682;SDS011;51107;47.652;19.016;2023-05-14T10:45:07;4.28;;;2.75;;
64682;SDS011;51107;47.652;19.016;2023-05-14T10:47:38;4.65;;;3.28;;
64682;SDS011;51107;47.652;19.016;2023-05-14T10:50:12;14.35;;;7.75;;
64682;SDS011;51107;47.652;19.016;2023-05-14T10:52:42;3.92;;;2.90;;
64682;SDS011;51107;47.652;19.016;2023-05-14T10:55:12;4.15;;;2.55;;
64682;SDS011;51107;47.652;19.016;2023-05-14T10:57:43;5.85;;;3.12;;
64682;SDS011;51107;47.652;19.016;2023-05-14T11:00:12;5.37;;;3.37;;
64682;SDS011;51107;47.652;19.016;2023-05-14T11:02:42;3.00;;;1.98;;
64682;SDS011;51107;47.652;19.016;2023-05-14T11:05:14;6.87;;;2.50;;
64682;SDS011;51107;47.652;19.016;2023-05-14T11:07:47;3.15;;;2.30;;
64682;SDS011;51107;47.652;19.016;2023-05-14T11:10:16;3.08;;;1.83;;
64682;SDS011;51107;47.652;19.016;2023-05-14T11:12:47;2.97;;;1.90;;
64682;SDS011;51107;47.652;19.016;2023-05-14T11:15:20;3.72;;;2.60;;
64682;SDS011;51107;47.652;19.016;2023-05-14T11:17:50;4.28;;;2.83;;
64682;SDS011;51107;47.652;19.016;2023-05-14T11:20:19;3.92;;;2.15;;
64682;SDS011;51107;47.652;19.016;2023-05-14T11:22:48;2.45;;;2.08;;
64682;SDS011;51107;47.652;19.016;2023-05-14T11:25:18;4.60;;;1.83;;
64682;SDS011;51107;47.652;19.016;2023-05-14T11:27:48;2.62;;;1.60;;
64682;SDS011;51107;47.652;19.016;2023-05-14T11:30:18;2.25;;;1.92;;
64682;SDS011;51107;47.652;19.016;2023-05-14T11:32:47;3.03;;;1.92;;
64682;SDS011;51107;47.652;19.016;2023-05-14T11:35:16;3.08;;;1.65;;
64682;SDS011;51107;47.652;19.016;2023-05-14T11:37:49;2.05;;;1.50;;
64682;SDS011;51107;47.652;19.016;2023-05-14T11:40:19;4.50;;;2.27;;
64682;SDS011;51107;47.652;19.016;2023-05-14T11:42:49;3.10;;;1.95;;
64682;SDS011;51107;47.652;19.016;2023-05-14T11:45:23;4.40;;;2.17;;
64682;SDS011;51107;47.652;19.016;2023-05-14T11:47:53;4.55;;;2.12;;
64682;SDS011;51107;47.652;19.016;2023-05-14T11:50:22;4.00;;;2.28;;
64682;SDS011;51107;47.652;19.016;2023-05-14T11:52:54;3.45;;;2.47;;
64682;SDS011;51107;47.652;19.016;2023-05-14T11:55:24;4.25;;;2.40;;
64682;SDS011;51107;47.652;19.016;2023-05-14T11:57:52;3.00;;;1.95;;
64682;SDS011;51107;47.652;19.016;2023-05-14T12:00:21;2.50;;;1.70;;
64682;SDS011;51107;47.652;19.016;2023-05-14T12:02:51;2.47;;;1.83;;
64682;SDS011;51107;47.652;19.016;2023-05-14T12:05:21;5.32;;;2.75;;
64682;SDS011;51107;47.652;19.016;2023-05-14T12:07:49;2.05;;;1.65;;
64682;SDS011;51107;47.652;19.016;2023-05-14T12:10:18;2.97;;;2.05;;
64682;SDS011;51107;47.652;19.016;2023-05-14T12:12:46;3.70;;;2.30;;
64682;SDS011;51107;47.652;19.016;2023-05-14T12:15:15;4.03;;;2.33;;
64682;SDS011;51107;47.652;19.016;2023-05-14T12:17:49;2.85;;;2.20;;
64682;SDS011;51107;47.652;19.016;2023-05-14T12:20:18;4.87;;;2.67;;
64682;SDS011;51107;47.652;19.016;2023-05-14T12:22:47;4.30;;;2.12;;
64682;SDS011;51107;47.652;19.016;2023-05-14T12:25:16;1.98;;;1.42;;
64682;SDS011;51107;47.652;19.016;2023-05-14T12:27:44;1.98;;;1.70;;
64682;SDS011;51107;47.652;19.016;2023-05-14T12:30:12;1.87;;;1.42;;
64682;SDS011;51107;47.652;19.016;2023-05-14T12:32:44;3.25;;;1.98;;
64682;SDS011;51107;47.652;19.016;2023-05-14T12:35:13;3.03;;;1.87;;
64682;SDS011;51107;47.652;19.016;2023-05-14T12:37:41;2.45;;;1.80;;
64682;SDS011;51107;47.652;19.016;2023-05-14T12:40:10;2.03;;;1.67;;
64682;SDS011;51107;47.652;19.016;2023-05-14T12:42:38;2.70;;;1.52;;
64682;SDS011;51107;47.652;19.016;2023-05-14T12:45:06;2.78;;;2.08;;
64682;SDS011;51107;47.652;19.016;2023-05-14T12:47:35;4.28;;;2.85;;
64682;SDS011;51107;47.652;19.016;2023-05-14T12:50:04;5.32;;;3.40;;
64682;SDS011;51107;47.652;19.016;2023-05-14T12:52:33;10.73;;;3.90;;
64682;SDS011;51107;47.652;19.016;2023-05-14T12:55:05;7.95;;;3.87;;
64682;SDS011;51107;47.652;19.016;2023-05-14T12:57:37;8.80;;;3.75;;
64682;SDS011;51107;47.652;19.016;2023-05-14T13:00:07;4.35;;;2.60;;
64682;SDS011;51107;47.652;19.016;2023-05-14T13:02:40;4.90;;;2.40;;
64682;SDS011;51107;47.652;19.016;2023-05-14T13:05:11;3.65;;;2.83;;
64682;SDS011;51107;47.652;19.016;2023-05-14T13:07:39;7.22;;;4.90;;
64682;SDS011;51107;47.652;19.016;2023-05-14T13:10:08;5.30;;;3.45;;
64682;SDS011;51107;47.652;19.016;2023-05-14T13:12:37;4.90;;;3.47;;
64682;SDS011;51107;47.652;19.016;2023-05-14T13:15:05;3.75;;;2.65;;
64682;SDS011;51107;47.652;19.016;2023-05-14T13:17:34;4.32;;;2.33;;
64682;SDS011;51107;47.652;19.016;2023-05-14T13:20:03;3.58;;;2.15;;
64682;SDS011;51107;47.652;19.016;2023-05-14T13:22:31;2.53;;;2.03;;
64682;SDS011;51107;47.652;19.016;2023-05-14T13:25:00;4.30;;;2.15;;
64682;SDS011;51107;47.652;19.016;2023-05-14T13:27:28;4.32;;;2.58;;
64682;SDS011;51107;47.652;19.016;2023-05-14T13:29:57;3.17;;;2.78;;
64682;SDS011;51107;47.652;19.016;2023-05-14T13:32:25;3.58;;;2.70;;
64682;SDS011;51107;47.652;19.016;2023-05-14T13:34:53;7.00;;;3.60;;
64682;SDS011;51107;47.652;19.016;2023-05-14T13:37:22;6.32;;;3.25;;
64682;SDS011;51107;47.652;19.016;2023-05-14T13:39:51;4.68;;;3.45;;
64682;SDS011;51107;47.652;19.016;2023-05-14T13:42:19;3.58;;;2.90;;
64682;SDS011;51107;47.652;19.016;2023-05-14T13:44:47;8.02;;;3.25;;
64682;SDS011;51107;47.652;19.016;2023-05-14T13:47:15;6.25;;;2.90;;
64682;SDS011;51107;47.652;19.016;2023-05-14T13:49:44;5.37;;;3.45;;
64682;SDS011;51107;47.652;19.016;2023-05-14T13:52:12;4.03;;;2.85;;
64682;SDS011;51107;47.652;19.016;2023-05-14T13:54:40;5.80;;;2.83;;
64682;SDS011;51107;47.652;19.016;2023-05-14T13:57:09;4.65;;;2.72;;
64682;SDS011;51107;47.652;19.016;2023-05-14T13:59:37;2.67;;;1.92;;
64682;SDS011;51107;47.652;19.016;2023-05-14T14:02:06;3.28;;;2.10;;
64682;SDS011;51107;47.652;19.016;2023-05-14T14:04:35;3.65;;;2.10;;
64682;SDS011;51107;47.652;19.016;2023-05-14T14:07:03;2.80;;;2.15;;
64682;SDS011;51107;47.652;19.016;2023-05-14T14:09:31;5.97;;;4.40;;
64682;SDS011;51107;47.652;19.016;2023-05-14T14:12:03;4.62;;;3.10;;
64682;SDS011;51107;47.652;19.016;2023-05-14T14:14:31;2.53;;;1.98;;
64682;SDS011;51107;47.652;19.016;2023-05-14T14:16:59;2.90;;;1.77;;
64682;SDS011;51107;47.652;19.016;2023-05-14T14:19:28;2.10;;;1.52;;
64682;SDS011;51107;47.652;19.016;2023-05-14T14:21:56;2.70;;;1.67;;
64682;SDS011;51107;47.652;19.016;2023-05-14T14:24:24;2.80;;;1.87;;
64682;SDS011;51107;47.652;19.016;2023-05-14T14:26:53;2.25;;;2.05;;
64682;SDS011;51107;47.652;19.016;2023-05-14T14:29:21;4.12;;;2.47;;
64682;SDS011;51107;47.652;19.016;2023-05-14T14:31:50;2.10;;;1.70;;
64682;SDS011;51107;47.652;19.016;2023-05-14T14:34:19;3.90;;;2.12;;
64682;SDS011;51107;47.652;19.016;2023-05-14T14:36:48;4.53;;;2.45;;
64682;SDS011;51107;47.652;19.016;2023-05-14T14:39:16;4.15;;;2.45;;
64682;SDS011;51107;47.652;19.016;2023-05-14T14:41:44;7.05;;;4.47;;
64682;SDS011;51107;47.652;19.016;2023-05-14T14:44:14;4.82;;;3.33;;
64682;SDS011;51107;47.652;19.016;2023-05-14T14:46:42;3.40;;;2.70;;
64682;SDS011;51107;47.652;19.016;2023-05-14T14:49:10;3.08;;;2.33;;
64682;SDS011;51107;47.652;19.016;2023-05-14T14:51:39;5.85;;;3.15;;
64682;SDS011;51107;47.652;19.016;2023-05-14T14:54:07;5.75;;;2.15;;
64682;SDS011;51107;47.652;19.016;2023-05-14T14:56:36;2.42;;;1.77;;
64682;SDS011;51107;47.652;19.016;2023-05-14T14:59:04;2.62;;;1.95;;